createdAt,value
2018-11-01T00:00:30.096Z,952.77
2018-11-01T00:01:30.080Z,952.78
2018-11-01T00:02:30.064Z,952.77
2018-11-01T00:03:30.045Z,952.75
2018-11-01T00:04:30.031Z,952.8
2018-11-01T00:05:30.014Z,952.76
2018-11-01T00:06:29.997Z,952.78
2018-11-01T00:07:29.981Z,952.77
2018-11-01T00:08:29.965Z,952.8
2018-11-01T00:09:29.952Z,952.71
2018-11-01T00:10:29.932Z,952.74
2018-11-01T00:11:29.915Z,952.69
2018-11-01T00:12:29.902Z,952.64
2018-11-01T00:13:29.884Z,952.65
2018-11-01T00:14:29.869Z,952.62
2018-11-01T00:15:29.851Z,952.63
2018-11-01T00:16:29.834Z,952.63
2018-11-01T00:17:29.822Z,952.64
2018-11-01T00:18:29.808Z,952.62
2018-11-01T00:19:29.786Z,952.64
2018-11-01T00:20:29.769Z,952.65
2018-11-01T00:21:29.753Z,952.62
2018-11-01T00:22:29.741Z,952.64
2018-11-01T00:23:29.721Z,952.65
2018-11-01T00:24:29.703Z,952.69
2018-11-01T00:25:29.687Z,952.67
2018-11-01T00:26:29.671Z,952.7
2018-11-01T00:27:29.655Z,952.65
2018-11-01T00:28:29.641Z,952.7
2018-11-01T00:29:29.621Z,952.66
2018-11-01T00:30:29.606Z,952.63
2018-11-01T00:31:29.588Z,952.63
2018-11-01T00:32:29.572Z,952.62
2018-11-01T00:33:29.556Z,952.61
2018-11-01T00:34:29.539Z,952.55
2018-11-01T00:35:29.523Z,952.57
2018-11-01T00:36:29.513Z,952.53
2018-11-01T00:37:29.490Z,952.5
2018-11-01T00:38:29.474Z,952.53
2018-11-01T00:39:29.459Z,952.5
2018-11-01T00:40:29.441Z,952.51
2018-11-01T00:41:29.425Z,952.51
2018-11-01T00:42:29.409Z,952.49
2018-11-01T00:43:29.390Z,952.51
2018-11-01T00:44:29.375Z,952.52
2018-11-01T00:45:29.361Z,952.58
2018-11-01T00:46:29.344Z,952.59
2018-11-01T00:47:29.327Z,952.58
2018-11-01T00:48:29.309Z,952.6
2018-11-01T00:49:29.295Z,952.65
2018-11-01T00:50:29.278Z,952.65
2018-11-01T00:51:29.261Z,952.72
2018-11-01T00:52:29.245Z,952.71
2018-11-01T00:53:29.230Z,952.75
2018-11-01T00:54:29.228Z,952.7
2018-11-01T00:55:29.197Z,952.67
2018-11-01T00:56:29.181Z,952.67
2018-11-01T00:57:29.165Z,952.69
2018-11-01T00:58:29.148Z,952.67
2018-11-01T00:59:29.132Z,952.7
2018-11-01T01:00:29.115Z,952.7
2018-11-01T01:01:29.097Z,952.71
2018-11-01T01:02:29.081Z,952.72
2018-11-01T01:03:29.065Z,952.69
2018-11-01T01:04:29.051Z,952.74
2018-11-01T01:05:29.032Z,952.79
2018-11-01T01:06:29.017Z,952.84
2018-11-01T01:07:29.001Z,952.84
2018-11-01T01:08:28.984Z,952.86
2018-11-01T01:09:28.968Z,952.87
2018-11-01T01:10:28.950Z,952.81
2018-11-01T01:11:28.936Z,952.78
2018-11-01T01:12:28.919Z,952.77
2018-11-01T01:13:28.902Z,952.77
2018-11-01T01:14:28.886Z,952.77
2018-11-01T01:15:28.871Z,952.76
2018-11-01T01:16:28.854Z,952.77
2018-11-01T01:17:28.838Z,952.74
2018-11-01T01:18:28.820Z,952.67
2018-11-01T01:19:28.808Z,952.64
2018-11-01T01:20:28.788Z,952.57
2018-11-01T01:21:28.774Z,952.55
2018-11-01T01:22:28.757Z,952.58
2018-11-01T01:23:28.740Z,952.59
2018-11-01T01:24:28.724Z,952.56
2018-11-01T01:25:28.707Z,952.6
2018-11-01T01:26:28.692Z,952.6
2018-11-01T01:27:28.675Z,952.66
2018-11-01T01:28:28.659Z,952.69
2018-11-01T01:29:28.642Z,952.7
2018-11-01T01:30:28.628Z,952.67
2018-11-01T01:31:28.610Z,952.68
2018-11-01T01:32:28.594Z,952.66
2018-11-01T01:33:28.577Z,952.67
2018-11-01T01:34:28.578Z,952.66
2018-11-01T01:35:28.545Z,952.62
2018-11-01T01:36:28.531Z,952.63
2018-11-01T01:37:28.513Z,952.57
2018-11-01T01:38:28.499Z,952.57
2018-11-01T01:39:28.480Z,952.53
2018-11-01T01:40:28.466Z,952.45
2018-11-01T01:41:28.450Z,952.44
2018-11-01T01:42:28.433Z,952.43
2018-11-01T01:43:28.418Z,952.36
2018-11-01T01:44:28.399Z,952.4
2018-11-01T01:45:28.383Z,952.42
2018-11-01T01:46:28.368Z,952.42
2018-11-01T01:47:28.353Z,952.43
2018-11-01T01:48:28.335Z,952.39
2018-11-01T01:49:28.321Z,952.37
2018-11-01T01:50:28.315Z,952.32
2018-11-01T01:51:28.288Z,952.31
2018-11-01T01:52:28.272Z,952.36
2018-11-01T01:53:28.255Z,952.34
2018-11-01T01:54:28.240Z,952.35
2018-11-01T01:55:28.224Z,952.33
2018-11-01T01:56:28.207Z,952.29
2018-11-01T01:57:28.191Z,952.33
2018-11-01T01:58:28.175Z,952.32
2018-11-01T01:59:28.162Z,952.3
2018-11-01T02:00:28.143Z,952.28
2018-11-01T02:01:28.127Z,952.27
2018-11-01T02:02:28.110Z,952.32
2018-11-01T02:03:28.097Z,952.34
2018-11-01T02:04:28.079Z,952.36
2018-11-01T02:05:28.063Z,952.37
2018-11-01T02:06:28.048Z,952.41
2018-11-01T02:07:28.030Z,952.44
2018-11-01T02:08:28.015Z,952.42
2018-11-01T02:09:28.000Z,952.4
2018-11-01T02:10:27.990Z,952.37
2018-11-01T02:11:27.970Z,952.39
2018-11-01T02:12:27.954Z,952.41
2018-11-01T02:13:27.937Z,952.41
2018-11-01T02:14:27.919Z,952.41
2018-11-01T02:15:27.903Z,952.42
2018-11-01T02:16:27.887Z,952.46
2018-11-01T02:17:27.871Z,952.47
2018-11-01T02:18:27.859Z,952.49
2018-11-01T02:19:27.839Z,952.47
2018-11-01T02:20:27.829Z,952.47
2018-11-01T02:21:27.807Z,952.52
2018-11-01T02:22:27.792Z,952.49
2018-11-01T02:23:27.783Z,952.49
2018-11-01T02:24:27.760Z,952.4
2018-11-01T02:25:27.743Z,952.46
2018-11-01T02:26:27.729Z,952.39
2018-11-01T02:27:27.712Z,952.43
2018-11-01T02:28:27.698Z,952.33
2018-11-01T02:29:27.680Z,952.29
2018-11-01T02:30:27.666Z,952.27
2018-11-01T02:31:27.658Z,952.2
2018-11-01T02:32:27.635Z,952.19
2018-11-01T02:33:27.623Z,952.16
2018-11-01T02:34:27.601Z,952.18
2018-11-01T02:35:27.585Z,952.15
2018-11-01T02:36:27.569Z,952.2
2018-11-01T02:37:27.556Z,952.21
2018-11-01T02:38:27.635Z,952.16
2018-11-01T02:39:27.539Z,952.14
2018-11-01T02:40:27.505Z,952.15
2018-11-01T02:41:27.491Z,952.14
2018-11-01T02:42:27.475Z,952.12
2018-11-01T02:43:27.460Z,952.15
2018-11-01T02:44:27.441Z,952.18
2018-11-01T02:45:27.428Z,952.17
2018-11-01T02:46:27.410Z,952.14
2018-11-01T02:47:27.399Z,952.16
2018-11-01T02:48:27.379Z,952.13
2018-11-01T02:49:27.363Z,952.08
2018-11-01T02:50:27.348Z,952.11
2018-11-01T02:51:27.330Z,952.11
2018-11-01T02:52:27.315Z,952.07
2018-11-01T02:53:27.300Z,952.12
2018-11-01T02:54:27.284Z,952.09
2018-11-01T02:55:27.269Z,952.08
2018-11-01T02:56:27.251Z,952.08
2018-11-01T02:57:27.236Z,952.07
2018-11-01T02:58:27.246Z,952.04
2018-11-01T02:59:27.248Z,951.99
2018-11-01T03:00:27.189Z,952
2018-11-01T03:01:27.171Z,951.98
2018-11-01T03:02:27.157Z,952.04
2018-11-01T03:03:27.157Z,952.02
2018-11-01T03:04:27.124Z,951.99
2018-11-01T03:05:27.112Z,951.98
2018-11-01T03:06:27.093Z,951.94
2018-11-01T03:07:27.077Z,951.9
2018-11-01T03:08:27.062Z,951.91
2018-11-01T03:09:27.046Z,951.94
2018-11-01T03:10:27.029Z,951.91
2018-11-01T03:11:27.014Z,951.92
2018-11-01T03:12:26.998Z,951.87
2018-11-01T03:13:26.980Z,951.9
2018-11-01T03:14:26.965Z,951.84
2018-11-01T03:15:26.949Z,951.8
2018-11-01T03:16:26.934Z,951.75
2018-11-01T03:17:26.917Z,951.73
2018-11-01T03:18:26.901Z,951.76
2018-11-01T03:19:26.890Z,951.75
2018-11-01T03:20:26.870Z,951.73
2018-11-01T03:21:26.886Z,951.76
2018-11-01T03:22:26.838Z,951.8
2018-11-01T03:23:26.824Z,951.79
2018-11-01T03:24:26.806Z,951.79
2018-11-01T03:25:26.791Z,951.79
2018-11-01T03:26:26.815Z,951.8
2018-11-01T03:27:26.761Z,951.81
2018-11-01T03:28:26.744Z,951.82
2018-11-01T03:29:26.731Z,951.83
2018-11-01T03:30:26.712Z,951.83
2018-11-01T03:31:26.705Z,951.79
2018-11-01T03:32:26.682Z,951.77
2018-11-01T03:33:26.670Z,951.7
2018-11-01T03:34:26.649Z,951.74
2018-11-01T03:35:26.632Z,951.75
2018-11-01T03:36:26.620Z,951.74
2018-11-01T03:37:26.600Z,951.78
2018-11-01T03:38:26.725Z,951.77
2018-11-01T03:39:26.568Z,951.72
2018-11-01T03:40:26.553Z,951.68
2018-11-01T03:41:26.540Z,951.67
2018-11-01T03:42:26.521Z,951.64
2018-11-01T03:43:26.506Z,951.65
2018-11-01T03:44:26.489Z,951.63
2018-11-01T03:45:26.489Z,951.66
2018-11-01T03:46:26.458Z,951.65
2018-11-01T03:47:26.442Z,951.64
2018-11-01T03:48:26.426Z,951.67
2018-11-01T03:49:26.412Z,951.7
2018-11-01T03:50:26.394Z,951.7
2018-11-01T03:51:26.378Z,951.69
2018-11-01T03:52:26.364Z,951.73
2018-11-01T03:53:26.364Z,951.7
2018-11-01T03:54:26.330Z,951.67
2018-11-01T03:55:26.316Z,951.66
2018-11-01T03:56:26.299Z,951.67
2018-11-01T03:57:26.282Z,951.67
2018-11-01T03:58:26.267Z,951.68
2018-11-01T03:59:26.251Z,951.71
2018-11-01T04:00:26.235Z,951.73
2018-11-01T04:01:26.222Z,951.7
2018-11-01T04:02:26.209Z,951.72
2018-11-01T04:03:26.188Z,951.67
2018-11-01T04:04:26.172Z,951.64
2018-11-01T04:05:26.155Z,951.62
2018-11-01T04:06:26.139Z,951.67
2018-11-01T04:07:26.124Z,951.61
2018-11-01T04:08:26.109Z,951.61
2018-11-01T04:09:26.093Z,951.58
2018-11-01T04:10:26.078Z,951.63
2018-11-01T04:11:26.059Z,951.56
2018-11-01T04:12:26.044Z,951.52
2018-11-01T04:13:26.043Z,951.46
2018-11-01T04:14:26.014Z,951.41
2018-11-01T04:15:25.997Z,951.45
2018-11-01T04:16:25.983Z,951.47
2018-11-01T04:17:25.965Z,951.49
2018-11-01T04:18:25.953Z,951.53
2018-11-01T04:19:25.932Z,951.54
2018-11-01T04:20:25.917Z,951.58
2018-11-01T04:21:25.902Z,951.59
2018-11-01T04:22:25.889Z,951.59
2018-11-01T04:23:25.987Z,951.63
2018-11-01T04:24:25.853Z,951.63
2018-11-01T04:25:25.838Z,951.69
2018-11-01T04:26:25.805Z,951.68
2018-11-01T04:27:25.812Z,951.69
2018-11-01T04:28:25.772Z,951.71
2018-11-01T04:29:25.757Z,951.61
2018-11-01T04:30:25.756Z,951.56
2018-11-01T04:31:25.725Z,951.53
2018-11-01T04:32:25.724Z,951.44
2018-11-01T04:33:25.849Z,951.39
2018-11-01T04:34:25.677Z,951.41
2018-11-01T04:35:25.728Z,951.37
2018-11-01T04:36:25.676Z,951.37
2018-11-01T04:37:25.634Z,951.34
2018-11-01T04:38:25.614Z,951.33
2018-11-01T04:39:25.598Z,951.27
2018-11-01T04:40:25.587Z,951.26
2018-11-01T04:41:25.573Z,951.29
2018-11-01T04:42:25.550Z,951.33
2018-11-01T04:43:25.535Z,951.35
2018-11-01T04:44:25.523Z,951.32
2018-11-01T04:45:25.514Z,951.32
2018-11-01T04:46:25.512Z,951.31
2018-11-01T04:47:25.588Z,951.29
2018-11-01T04:48:25.453Z,951.26
2018-11-01T04:49:25.437Z,951.23
2018-11-01T04:50:25.422Z,951.26
2018-11-01T04:51:25.407Z,951.25
2018-11-01T04:52:25.400Z,951.26
2018-11-01T04:53:25.374Z,951.28
2018-11-01T04:54:25.357Z,951.31
2018-11-01T04:55:25.341Z,951.33
2018-11-01T04:56:25.326Z,951.27
2018-11-01T04:57:25.312Z,951.24
2018-11-01T04:58:25.293Z,951.19
2018-11-01T04:59:25.278Z,951.19
2018-11-01T05:00:25.262Z,951.17
2018-11-01T05:01:25.244Z,951.17
2018-11-01T05:02:25.229Z,951.12
2018-11-01T05:03:25.218Z,951.11
2018-11-01T05:04:25.196Z,951.1
2018-11-01T05:05:25.183Z,951.09
2018-11-01T05:06:25.164Z,951.09
2018-11-01T05:07:25.150Z,951
2018-11-01T05:08:25.132Z,950.94
2018-11-01T05:09:25.119Z,950.89
2018-11-01T05:10:25.099Z,950.86
2018-11-01T05:11:25.085Z,950.83
2018-11-01T05:12:25.068Z,950.82
2018-11-01T05:13:25.053Z,950.86
2018-11-01T05:14:25.035Z,950.87
2018-11-01T05:15:25.103Z,950.88
2018-11-01T05:16:25.005Z,950.87
2018-11-01T05:17:24.988Z,950.9
2018-11-01T05:18:24.972Z,950.84
2018-11-01T05:19:24.964Z,950.76
2018-11-01T05:20:24.970Z,950.76
2018-11-01T05:21:24.927Z,950.78
2018-11-01T05:22:24.907Z,950.77
2018-11-01T05:23:24.892Z,950.74
2018-11-01T05:24:24.876Z,950.81
2018-11-01T05:25:24.861Z,950.79
2018-11-01T05:26:24.843Z,950.8
2018-11-01T05:27:24.828Z,950.81
2018-11-01T05:28:24.812Z,950.85
2018-11-01T05:29:24.840Z,950.86
2018-11-01T05:30:24.780Z,950.83
2018-11-01T05:31:24.765Z,950.89
2018-11-01T05:32:24.747Z,950.9
2018-11-01T05:33:24.731Z,950.91
2018-11-01T05:34:24.721Z,950.97
2018-11-01T05:35:24.701Z,950.97
2018-11-01T05:36:24.684Z,950.96
2018-11-01T05:37:24.669Z,950.99
2018-11-01T05:38:24.655Z,950.93
2018-11-01T05:39:24.637Z,950.98
2018-11-01T05:40:24.622Z,950.99
2018-11-01T05:41:24.612Z,950.93
2018-11-01T05:42:24.591Z,950.92
2018-11-01T05:43:24.576Z,950.89
2018-11-01T05:44:24.560Z,950.88
2018-11-01T05:45:24.547Z,950.87
2018-11-01T05:46:24.528Z,950.82
2018-11-01T05:47:24.512Z,950.82
2018-11-01T05:48:24.496Z,950.76
2018-11-01T05:49:24.483Z,950.7
2018-11-01T05:50:24.465Z,950.72
2018-11-01T05:51:24.451Z,950.7
2018-11-01T05:52:24.437Z,950.74
2018-11-01T05:53:24.420Z,950.72
2018-11-01T05:54:24.403Z,950.74
2018-11-01T05:55:24.389Z,950.66
2018-11-01T05:56:24.373Z,950.66
2018-11-01T05:57:24.356Z,950.66
2018-11-01T05:58:24.341Z,950.67
2018-11-01T05:59:24.325Z,950.74
2018-11-01T06:00:24.317Z,950.69
2018-11-01T06:01:24.295Z,950.69
2018-11-01T06:02:24.277Z,950.76
2018-11-01T06:03:24.266Z,950.73
2018-11-01T06:04:24.249Z,950.71
2018-11-01T06:05:24.287Z,950.73
2018-11-01T06:06:24.218Z,950.73
2018-11-01T06:07:24.203Z,950.73
2018-11-01T06:08:24.185Z,950.73
2018-11-01T06:09:24.171Z,950.73
2018-11-01T06:10:24.156Z,950.69
2018-11-01T06:11:24.140Z,950.69
2018-11-01T06:12:24.234Z,950.71
2018-11-01T06:13:24.110Z,950.71
2018-11-01T06:14:24.096Z,950.72
2018-11-01T06:15:24.080Z,950.72
2018-11-01T06:16:24.065Z,950.65
2018-11-01T06:17:24.050Z,950.67
2018-11-01T06:18:24.035Z,950.65
2018-11-01T06:19:24.017Z,950.62
2018-11-01T06:20:24.045Z,950.66
2018-11-01T06:21:23.987Z,950.61
2018-11-01T06:22:23.974Z,950.62
2018-11-01T06:23:23.957Z,950.64
2018-11-01T06:24:23.942Z,950.6
2018-11-01T06:25:23.928Z,950.6
2018-11-01T06:26:23.912Z,950.55
2018-11-01T06:27:23.896Z,950.6
2018-11-01T06:28:23.882Z,950.63
2018-11-01T06:29:23.868Z,950.58
2018-11-01T06:30:23.946Z,950.54
2018-11-01T06:31:23.837Z,950.49
2018-11-01T06:32:23.823Z,950.49
2018-11-01T06:33:23.807Z,950.49
2018-11-01T06:34:23.795Z,950.52
2018-11-01T06:35:23.775Z,950.53
2018-11-01T06:36:23.763Z,950.53
2018-11-01T06:37:23.748Z,950.55
2018-11-01T06:38:23.731Z,950.52
2018-11-01T06:39:23.716Z,950.54
2018-11-01T06:40:23.703Z,950.5
2018-11-01T06:41:23.688Z,950.47
2018-11-01T06:42:23.673Z,950.47
2018-11-01T06:43:23.657Z,950.47
2018-11-01T06:44:23.709Z,950.44
2018-11-01T06:45:23.627Z,950.44
2018-11-01T06:46:23.614Z,950.39
2018-11-01T06:47:23.599Z,950.41
2018-11-01T06:48:23.583Z,950.38
2018-11-01T06:49:23.567Z,950.41
2018-11-01T06:50:23.555Z,950.43
2018-11-01T06:51:23.539Z,950.43
2018-11-01T06:52:23.544Z,950.42
2018-11-01T06:53:23.509Z,950.43
2018-11-01T06:54:23.494Z,950.41
2018-11-01T06:55:23.481Z,950.4
2018-11-01T06:56:23.465Z,950.37
2018-11-01T06:57:23.453Z,950.34
2018-11-01T06:58:23.596Z,950.29
2018-11-01T06:59:23.567Z,950.3
2018-11-01T07:00:23.411Z,950.24
2018-11-01T07:01:23.395Z,950.16
2018-11-01T07:02:23.379Z,950.12
2018-11-01T07:03:23.365Z,950.08
2018-11-01T07:04:23.352Z,950.04
2018-11-01T07:05:23.402Z,949.98
2018-11-01T07:06:23.324Z,949.99
2018-11-01T07:07:23.309Z,949.99
2018-11-01T07:08:23.298Z,950
2018-11-01T07:09:23.280Z,950.03
2018-11-01T07:10:23.268Z,950.07
2018-11-01T07:11:23.290Z,950.08
2018-11-01T07:12:23.240Z,950.09
2018-11-01T07:13:23.228Z,950.13
2018-11-01T07:14:23.211Z,950.18
2018-11-01T07:15:23.198Z,950.2
2018-11-01T07:16:23.186Z,950.24
2018-11-01T07:17:23.337Z,950.23
2018-11-01T07:18:23.159Z,950.22
2018-11-01T07:19:23.143Z,950.18
2018-11-01T07:20:23.130Z,950.15
2018-11-01T07:21:23.117Z,950.14
2018-11-01T07:22:23.104Z,950.16
2018-11-01T07:23:23.087Z,950.14
2018-11-01T07:24:23.075Z,950.13
2018-11-01T07:25:23.202Z,950.1
2018-11-01T07:26:23.091Z,950.09
2018-11-01T07:27:23.035Z,950.07
2018-11-01T07:28:23.022Z,950.05
2018-11-01T07:29:23.008Z,950.09
2018-11-01T07:30:22.996Z,950.09
2018-11-01T07:31:22.983Z,950.07
2018-11-01T07:32:23.002Z,950.01
2018-11-01T07:33:22.955Z,950.04
2018-11-01T07:34:22.943Z,950.04
2018-11-01T07:35:22.930Z,950.05
2018-11-01T07:36:22.916Z,950.07
2018-11-01T07:37:22.902Z,950.09
2018-11-01T07:38:22.890Z,950.12
2018-11-01T07:39:22.876Z,950.1
2018-11-01T07:40:22.862Z,950.15
2018-11-01T07:41:22.848Z,950.13
2018-11-01T07:42:22.837Z,950.14
2018-11-01T07:43:22.824Z,950.09
2018-11-01T07:44:22.810Z,950.09
2018-11-01T07:45:22.801Z,950.05
2018-11-01T07:46:22.787Z,949.96
2018-11-01T07:47:22.771Z,949.87
2018-11-01T07:48:22.761Z,949.84
2018-11-01T07:49:22.745Z,949.89
2018-11-01T07:50:22.732Z,949.93
2018-11-01T07:51:22.719Z,949.96
2018-11-01T07:52:22.706Z,949.93
2018-11-01T07:53:22.692Z,949.92
2018-11-01T07:54:22.678Z,949.87
2018-11-01T07:55:22.668Z,949.84
2018-11-01T07:56:22.656Z,949.78
2018-11-01T07:57:22.643Z,949.72
2018-11-01T07:58:22.662Z,949.7
2018-11-01T07:59:22.616Z,949.7
2018-11-01T08:00:22.603Z,949.74
2018-11-01T08:01:22.594Z,949.8
2018-11-01T08:02:22.577Z,949.81
2018-11-01T08:03:22.568Z,949.83
2018-11-01T08:04:22.554Z,949.89
2018-11-01T08:05:22.540Z,949.94
2018-11-01T08:06:22.527Z,949.99
2018-11-01T08:07:22.523Z,949.96
2018-11-01T08:08:22.504Z,949.97
2018-11-01T08:09:22.489Z,949.98
2018-11-01T08:10:22.478Z,949.94
2018-11-01T08:11:22.469Z,949.9
2018-11-01T08:12:22.456Z,949.94
2018-11-01T08:13:22.440Z,949.97
2018-11-01T08:14:22.435Z,949.91
2018-11-01T08:15:22.417Z,949.9
2018-11-01T08:16:22.404Z,949.9
2018-11-01T08:17:22.391Z,949.93
2018-11-01T08:18:22.384Z,949.97
2018-11-01T08:19:22.396Z,950.02
2018-11-01T08:20:22.572Z,950.04
2018-11-01T08:21:22.543Z,950.02
2018-11-01T08:22:22.330Z,949.96
2018-11-01T08:23:22.320Z,949.92
2018-11-01T08:24:22.307Z,949.88
2018-11-01T08:25:22.295Z,949.83
2018-11-01T08:26:22.284Z,949.79
2018-11-01T08:27:22.276Z,949.72
2018-11-01T08:28:22.260Z,949.66
2018-11-01T08:29:22.250Z,949.62
2018-11-01T08:30:22.237Z,949.6
2018-11-01T08:31:22.228Z,949.65
2018-11-01T08:32:22.214Z,949.61
2018-11-01T08:33:22.205Z,949.7
2018-11-01T08:34:22.192Z,949.69
2018-11-01T08:35:22.181Z,949.72
2018-11-01T08:36:22.169Z,949.78
2018-11-01T08:37:22.159Z,949.72
2018-11-01T08:38:22.150Z,949.72
2018-11-01T08:39:22.190Z,949.67
2018-11-01T08:40:22.126Z,949.72
2018-11-01T08:41:22.115Z,949.74
2018-11-01T08:42:22.104Z,949.77
2018-11-01T08:43:22.099Z,949.75
2018-11-01T08:44:22.082Z,949.76
2018-11-01T08:45:22.076Z,949.74
2018-11-01T08:46:22.062Z,949.73
2018-11-01T08:47:22.054Z,949.75
2018-11-01T08:48:22.041Z,949.73
2018-11-01T08:49:22.093Z,949.75
2018-11-01T08:50:22.019Z,949.77
2018-11-01T08:51:22.011Z,949.71
2018-11-01T08:52:22.015Z,949.7
2018-11-01T08:53:21.987Z,949.64
2018-11-01T08:54:21.975Z,949.64
2018-11-01T08:55:21.973Z,949.6
2018-11-01T08:56:21.955Z,949.54
2018-11-01T08:57:21.945Z,949.55
2018-11-01T08:58:21.933Z,949.63
2018-11-01T08:59:21.923Z,949.63
2018-11-01T09:00:21.912Z,949.66
2018-11-01T09:01:21.902Z,949.66
2018-11-01T09:02:21.892Z,949.65
2018-11-01T09:03:21.882Z,949.65
2018-11-01T09:04:21.979Z,949.6
2018-11-01T09:05:21.862Z,949.57
2018-11-01T09:06:21.851Z,949.58
2018-11-01T09:07:21.876Z,949.55
2018-11-01T09:08:21.829Z,949.58
2018-11-01T09:09:21.819Z,949.59
2018-11-01T09:10:21.842Z,949.58
2018-11-01T09:11:21.797Z,949.6
2018-11-01T09:12:21.790Z,949.64
2018-11-01T09:13:21.946Z,949.68
2018-11-01T09:14:21.776Z,949.7
2018-11-01T09:15:21.755Z,949.71
2018-11-01T09:16:21.750Z,949.73
2018-11-01T09:17:21.737Z,949.68
2018-11-01T09:18:21.726Z,949.68
2018-11-01T09:19:21.806Z,949.69
2018-11-01T09:20:21.707Z,949.66
2018-11-01T09:21:21.697Z,949.71
2018-11-01T09:22:21.686Z,949.7
2018-11-01T09:23:21.677Z,949.69
2018-11-01T09:24:21.667Z,949.67
2018-11-01T09:25:21.663Z,949.66
2018-11-01T09:26:21.647Z,949.69
2018-11-01T09:27:21.637Z,949.66
2018-11-01T09:28:21.630Z,949.69
2018-11-01T09:29:21.617Z,949.68
2018-11-01T09:30:21.608Z,949.65
2018-11-01T09:31:21.602Z,949.7
2018-11-01T09:32:21.589Z,949.65
2018-11-01T09:33:21.579Z,949.65
2018-11-01T09:34:21.570Z,949.68
2018-11-01T09:35:21.561Z,949.63
2018-11-01T09:36:21.552Z,949.6
2018-11-01T09:37:21.542Z,949.63
2018-11-01T09:38:21.532Z,949.62
2018-11-01T09:39:21.522Z,949.66
2018-11-01T09:40:21.513Z,949.67
2018-11-01T09:41:21.504Z,949.63
2018-11-01T09:42:21.494Z,949.68
2018-11-01T09:43:21.485Z,949.69
2018-11-01T09:44:21.476Z,949.72
2018-11-01T09:45:21.466Z,949.75
2018-11-01T09:46:21.597Z,949.78
2018-11-01T09:47:21.784Z,949.79
2018-11-01T09:48:21.439Z,949.82
2018-11-01T09:49:21.427Z,949.82
2018-11-01T09:50:21.421Z,949.86
2018-11-01T09:51:21.413Z,949.85
2018-11-01T09:52:21.401Z,949.83
2018-11-01T09:53:21.393Z,949.88
2018-11-01T09:54:21.382Z,949.91
2018-11-01T09:55:21.400Z,949.88
2018-11-01T09:56:21.395Z,949.92
2018-11-01T09:57:21.354Z,949.93
2018-11-01T09:58:21.348Z,949.9
2018-11-01T09:59:21.337Z,949.9
2018-11-01T10:00:21.333Z,949.89
2018-11-01T10:01:21.318Z,949.94
2018-11-01T10:02:21.311Z,949.94
2018-11-01T10:03:21.300Z,949.92
2018-11-01T10:04:21.292Z,949.9
2018-11-01T10:05:21.284Z,949.89
2018-11-01T10:06:21.277Z,949.89
2018-11-01T10:07:21.267Z,949.89
2018-11-01T10:08:21.255Z,949.86
2018-11-01T10:09:21.249Z,949.87
2018-11-01T10:10:21.292Z,949.88
2018-11-01T10:11:21.230Z,949.89
2018-11-01T10:12:21.221Z,949.85
2018-11-01T10:13:21.211Z,949.8
2018-11-01T10:14:21.204Z,949.8
2018-11-01T10:15:21.365Z,949.77
2018-11-01T10:16:21.386Z,949.74
2018-11-01T10:17:21.688Z,949.76
2018-11-01T10:18:21.641Z,949.73
2018-11-01T10:19:21.160Z,949.75
2018-11-01T10:20:21.151Z,949.77
2018-11-01T10:21:21.258Z,949.79
2018-11-01T10:22:21.177Z,949.77
2018-11-01T10:23:21.127Z,949.76
2018-11-01T10:24:21.117Z,949.73
2018-11-01T10:25:21.176Z,949.7
2018-11-01T10:26:21.101Z,949.63
2018-11-01T10:27:21.094Z,949.61
2018-11-01T10:28:21.083Z,949.56
2018-11-01T10:29:21.085Z,949.44
2018-11-01T10:30:21.065Z,949.42
2018-11-01T10:31:21.055Z,949.34
2018-11-01T10:32:21.046Z,949.31
2018-11-01T10:33:21.037Z,949.28
2018-11-01T10:34:21.030Z,949.29
2018-11-01T10:35:21.020Z,949.29
2018-11-01T10:36:21.012Z,949.27
2018-11-01T10:37:21.003Z,949.33
2018-11-01T10:38:20.994Z,949.39
2018-11-01T10:39:20.984Z,949.4
2018-11-01T10:40:20.979Z,949.4
2018-11-01T10:41:20.968Z,949.32
2018-11-01T10:42:20.959Z,949.35
2018-11-01T10:43:20.951Z,949.36
2018-11-01T10:44:20.940Z,949.45
2018-11-01T10:45:20.996Z,949.42
2018-11-01T10:46:20.923Z,949.43
2018-11-01T10:47:20.917Z,949.4
2018-11-01T10:48:20.907Z,949.39
2018-11-01T10:49:20.897Z,949.44
2018-11-01T10:50:20.886Z,949.54
2018-11-01T10:51:20.878Z,949.52
2018-11-01T10:52:20.870Z,949.46
2018-11-01T10:53:20.858Z,949.43
2018-11-01T10:54:20.902Z,949.37
2018-11-01T10:55:20.844Z,949.41
2018-11-01T10:56:20.833Z,949.31
2018-11-01T10:57:20.825Z,949.37
2018-11-01T10:58:20.815Z,949.32
2018-11-01T10:59:20.807Z,949.32
2018-11-01T11:00:20.954Z,949.25
2018-11-01T11:01:20.787Z,949.22
2018-11-01T11:02:20.780Z,949.24
2018-11-01T11:03:20.772Z,949.21
2018-11-01T11:04:20.761Z,949.24
2018-11-01T11:05:20.752Z,949.25
2018-11-01T11:06:20.785Z,949.21
2018-11-01T11:07:20.736Z,949.24
2018-11-01T11:08:20.726Z,949.23
2018-11-01T11:09:20.716Z,949.22
2018-11-01T11:10:20.709Z,949.26
2018-11-01T11:11:20.700Z,949.29
2018-11-01T11:12:20.690Z,949.22
2018-11-01T11:13:20.682Z,949.2
2018-11-01T11:14:20.715Z,949.17
2018-11-01T11:15:20.663Z,949.16
2018-11-01T11:16:20.654Z,949.14
2018-11-01T11:17:20.645Z,949.18
2018-11-01T11:18:20.637Z,949.19
2018-11-01T11:19:20.659Z,949.22
2018-11-01T11:20:20.876Z,949.26
2018-11-01T11:21:20.739Z,949.3
2018-11-01T11:22:20.603Z,949.26
2018-11-01T11:23:20.593Z,949.23
2018-11-01T11:24:20.583Z,949.12
2018-11-01T11:25:20.576Z,949.1
2018-11-01T11:26:20.571Z,949.05
2018-11-01T11:27:20.557Z,948.94
2018-11-01T11:28:20.549Z,948.86
2018-11-01T11:29:20.541Z,948.8
2018-11-01T11:30:20.705Z,948.78
2018-11-01T11:31:20.523Z,948.77
2018-11-01T11:32:20.514Z,948.73
2018-11-01T11:33:20.505Z,948.72
2018-11-01T11:34:20.495Z,948.74
2018-11-01T11:35:20.500Z,948.74
2018-11-01T11:36:20.479Z,948.72
2018-11-01T11:37:20.469Z,948.7
2018-11-01T11:38:20.461Z,948.74
2018-11-01T11:39:20.542Z,948.7
2018-11-01T11:40:20.444Z,948.75
2018-11-01T11:41:20.434Z,948.75
2018-11-01T11:42:20.425Z,948.8
2018-11-01T11:43:20.416Z,948.81
2018-11-01T11:44:20.409Z,948.83
2018-11-01T11:45:20.399Z,948.83
2018-11-01T11:46:20.392Z,948.8
2018-11-01T11:47:20.384Z,948.78
2018-11-01T11:48:20.373Z,948.7
2018-11-01T11:49:20.364Z,948.69
2018-11-01T11:50:20.358Z,948.65
2018-11-01T11:51:20.412Z,948.66
2018-11-01T11:52:20.337Z,948.65
2018-11-01T11:53:20.330Z,948.67
2018-11-01T11:54:20.321Z,948.68
2018-11-01T11:55:20.312Z,948.63
2018-11-01T11:56:20.303Z,948.58
2018-11-01T11:57:20.296Z,948.58
2018-11-01T11:58:20.287Z,948.54
2018-11-01T11:59:20.277Z,948.52
2018-11-01T12:00:20.271Z,948.51
2018-11-01T12:01:20.262Z,948.48
2018-11-01T12:02:20.364Z,948.45
2018-11-01T12:03:20.244Z,948.42
2018-11-01T12:04:20.236Z,948.43
2018-11-01T12:05:20.338Z,948.36
2018-11-01T12:06:20.423Z,948.33
2018-11-01T12:07:20.208Z,948.33
2018-11-01T12:08:20.201Z,948.34
2018-11-01T12:09:20.194Z,948.32
2018-11-01T12:10:20.184Z,948.31
2018-11-01T12:11:20.179Z,948.22
2018-11-01T12:12:20.168Z,948.19
2018-11-01T12:13:20.163Z,948.22
2018-11-01T12:14:20.244Z,948.23
2018-11-01T12:15:20.143Z,948.22
2018-11-01T12:16:20.136Z,948.26
2018-11-01T12:17:20.129Z,948.29
2018-11-01T12:18:20.119Z,948.26
2018-11-01T12:19:20.109Z,948.24
2018-11-01T12:20:20.101Z,948.23
2018-11-01T12:21:20.094Z,948.21
2018-11-01T12:22:20.126Z,948.15
2018-11-01T12:23:20.077Z,948.13
2018-11-01T12:24:20.070Z,948.06
2018-11-01T12:25:20.062Z,948.05
2018-11-01T12:26:20.053Z,948.07
2018-11-01T12:27:20.044Z,948.03
2018-11-01T12:28:20.181Z,948.11
2018-11-01T12:29:20.027Z,948.11
2018-11-01T12:30:20.018Z,948.08
2018-11-01T12:31:20.012Z,948.12